Parsons, KS (67357)

5:35 PM CDT on June 24, 2017 (GMT -0500)
1422 Partridge | | Change Station

Elev 906 ft 37.33 °N, 95.26 °W | Updated 32 seconds ago

Clear
Clear
83.9 °F
Feels Like 82 °F
N
4.0
Wind Variable Wind from ESE

Today
High -- | Low -- °F
--% Chance of Precip.
Yesterday
High -- | Low -- °F
Precip. -- in
Pressure 30.16 in
Visibility 10.0 miles
Clouds Few 12000 ft
Heat Index 82 °F
Dew Point 50 °F
Humidity 31%
Rainfall 0.00 in
Snow Depth Not available.
6:01 AM 8:45 PM
New Moon, 1% visible
METAR KPPF 242152Z AUTO 33007KT 10SM FEW120 29/09 A3018 RMK AO2 SLP212 T02890094
Pressure 30.16 in
Visibility 10.0 miles
Clouds Few 12000 ft
Heat Index 82 °F
Dew Point 50 °F
Humidity 31%
Rainfall 0.00 in
Snow Depth Not available.
6:01 AM 8:45 PM
New Moon, 1% visible
METAR KPPF 242152Z AUTO 33007KT 10SM FEW120 29/09 A3018 RMK AO2 SLP212 T02890094

Get Severe Weather Alerts

Thanks for signing up!

Be on the lookout for a verification email in your inbox.

You'll start receiving the daily forecast at 6 AM.

×

10-Day Weather Forecast

Almanac

Astronomy

Jun. 24, 2017 Rise Set
Actual Time
Civil Twilight
Nautical Twilight
Astronomical Twilight
Moon
Length of Visible Light
Length of Day
Tomorrow will be .
, % of the Moon is Illuminated

Today's Extremes

State Highs State Lows

Community

WunderPhotos

Category 6

Welcome to Category 6. This is the collective home for Weather Underground's featured writeups by Dr. Jeff Masters (right), Bob Henson (left), Chris Burt, and other regular contributors.

Nearby

Air Quality

  Air Quality AQ Index Pollutant
Not available.

Snow Depth

Station Depth Elevation

Earthquake Activity

City Distance Mag. Time & Date
Minimum magnitude displayed is 2.5.

Coastal Water Temperatures

Place Temperature

Stations

Nearby Weather Stations

Station Location Temp. Windchill Dew Point Humidity Wind Precip. Elev Updated Type
                   

Watches & Warnings

There are currently no watches in effect.